createdAt,value
2018-08-06T00:02:32.995Z,98393.21
2018-08-06T00:07:26.236Z,98394.70
2018-08-06T00:12:20.179Z,98389.44
2018-08-06T00:17:13.323Z,98387.94
2018-08-06T00:22:06.683Z,98387.77
2018-08-06T00:26:59.674Z,98387.27
2018-08-06T00:31:52.690Z,98387.96
2018-08-06T00:36:46.025Z,98381.59
2018-08-06T00:41:39.281Z,98383.69
2018-08-06T00:46:32.330Z,98381.91
2018-08-06T00:51:25.517Z,98381.59
2018-08-06T00:56:18.557Z,98375.26
2018-08-06T01:01:11.551Z,98371.40
2018-08-06T01:06:04.986Z,98367.02
2018-08-06T01:10:58.045Z,98367.63
2018-08-06T01:15:51.170Z,98367.82
2018-08-06T01:20:44.248Z,98369.02
2018-08-06T01:25:37.387Z,98369.03
2018-08-06T01:30:30.495Z,98373.58
2018-08-06T01:35:23.398Z,98359.61
2018-08-06T01:40:17.375Z,98360.17
2018-08-06T01:45:13.056Z,98361.19
2018-08-06T01:50:07.036Z,98361.98
2018-08-06T01:54:59.982Z,98360.86
2018-08-06T01:59:53.672Z,98351.97
2018-08-06T02:04:46.645Z,98354.75
2018-08-06T02:09:39.715Z,98350.56
2018-08-06T02:14:33.078Z,98346.42
2018-08-06T02:19:26.014Z,98351.37
2018-08-06T02:24:18.993Z,98350.28
2018-08-06T02:29:12.654Z,98353.86
2018-08-06T02:34:05.751Z,98361.27
2018-08-06T02:38:58.799Z,98358.20
2018-08-06T02:43:51.864Z,98353.46
2018-08-06T02:48:45.781Z,98354.95
2018-08-06T02:53:39.367Z,98367.30
2018-08-06T02:58:32.347Z,98366.60
2018-08-06T03:03:25.408Z,98369.70
2018-08-06T03:08:18.359Z,98374.44
2018-08-06T03:13:11.330Z,98369.78
2018-08-06T03:18:04.446Z,98367.91
2018-08-06T03:22:57.496Z,98364.15
2018-08-06T03:27:50.691Z,98359.89
2018-08-06T03:32:47.842Z,98366.12
2018-08-06T03:37:40.945Z,98364.23
2018-08-06T03:42:34.065Z,98367.02
2018-08-06T03:47:27.035Z,98369.31
2018-08-06T03:52:20.014Z,98372.97
2018-08-06T03:57:13.462Z,98375.07
2018-08-06T04:02:06.577Z,98370.61
2018-08-06T04:06:59.889Z,98374.80
2018-08-06T04:11:52.968Z,98381.29
2018-08-06T04:16:45.928Z,98377.87
2018-08-06T04:21:39.426Z,98378.55
2018-08-06T04:26:32.463Z,98380.30
2018-08-06T04:31:25.399Z,98388.98
2018-08-06T04:36:18.386Z,98395.59
2018-08-06T04:41:11.716Z,98389.69
2018-08-06T04:46:05.006Z,98391.63
2018-08-06T04:50:58.598Z,98394.53
2018-08-06T04:55:51.690Z,98399.33
2018-08-06T05:00:44.888Z,98403.42
2018-08-06T05:05:37.827Z,98412.34
2018-08-06T05:10:30.762Z,98404.02
2018-08-06T05:15:23.666Z,98406.06
2018-08-06T05:20:16.664Z,98395.66
2018-08-06T05:25:10.068Z,98399.45
2018-08-06T05:30:03.584Z,98416.02
2018-08-06T05:34:56.657Z,98412.00
2018-08-06T05:39:50.106Z,98406.89
2018-08-06T05:44:43.303Z,98408.59
2018-08-06T05:49:36.406Z,98412.27
2018-08-06T05:54:29.735Z,98414.50
2018-08-06T05:59:22.833Z,98412.50
2018-08-06T06:04:15.923Z,98408.55
2018-08-06T06:09:10.182Z,98408.09
2018-08-06T06:14:03.787Z,98414.11
2018-08-06T06:18:56.754Z,98412.69
2018-08-06T06:23:49.801Z,98417.75
2018-08-06T06:28:43.648Z,98426.40
2018-08-06T06:33:36.747Z,98419.31
2018-08-06T06:38:30.766Z,98422.52
2018-08-06T06:43:24.414Z,98427.20
2018-08-06T06:48:17.309Z,98419.52
2018-08-06T06:53:10.647Z,98421.74
2018-08-06T06:58:04.020Z,98419.96
2018-08-06T07:02:57.473Z,98419.67
2018-08-06T07:07:50.591Z,98419.58
2018-08-06T07:12:43.869Z,98430.53
2018-08-06T07:17:37.238Z,98426.30
2018-08-06T07:22:30.245Z,98423.70
2018-08-06T07:27:23.715Z,98426.44
2018-08-06T07:32:19.231Z,98421.91
2018-08-06T07:37:12.182Z,98435.74
2018-08-06T07:42:05.314Z,98423.91
2018-08-06T07:47:00.032Z,98419.88
2018-08-06T07:51:54.327Z,98423.06
2018-08-06T07:56:47.573Z,98425.91
2018-08-06T08:01:40.670Z,98427.08
2018-08-06T08:06:33.801Z,98421.13
2018-08-06T08:11:27.285Z,98422.68
2018-08-06T08:16:20.968Z,98421.44
2018-08-06T08:21:14.187Z,98420.35
2018-08-06T08:26:08.270Z,98424.23
2018-08-06T08:31:01.689Z,98420.14
2018-08-06T08:35:54.644Z,98415.13
2018-08-06T08:40:47.643Z,98413.61
2018-08-06T08:45:40.865Z,98407.84
2018-08-06T08:50:33.942Z,98401.88
2018-08-06T08:55:27.166Z,98392.23
2018-08-06T09:00:22.149Z,98390.61
2018-08-06T09:05:15.881Z,98389.23
2018-08-06T09:10:10.738Z,98389.77
2018-08-06T09:15:04.802Z,98383.09
2018-08-06T09:19:58.883Z,98389.05
2018-08-06T09:24:52.376Z,98379.92
2018-08-06T09:29:45.491Z,98370.97
2018-08-06T09:34:38.590Z,98375.73
2018-08-06T09:39:31.556Z,98364.05
2018-08-06T09:44:24.533Z,98367.67
2018-08-06T09:49:17.614Z,98363.17
2018-08-06T09:54:10.663Z,98368.51
2018-08-06T09:59:03.716Z,98358.20
2018-08-06T10:03:57.956Z,98350.86
2018-08-06T10:08:51.675Z,98351.14
2018-08-06T10:13:44.779Z,98354.05
2018-08-06T10:18:38.028Z,98347.81
2018-08-06T10:23:31.003Z,98343.34
2018-08-06T10:28:24.794Z,98338.20
2018-08-06T10:33:17.755Z,98338.54
2018-08-06T10:38:10.850Z,98336.12
2018-08-06T10:43:04.005Z,98337.08
2018-08-06T10:47:57.005Z,98328.72
2018-08-06T10:52:50.086Z,98336.19
2018-08-06T10:57:44.191Z,98337.01
2018-08-06T11:02:37.324Z,98330.31
2018-08-06T11:07:30.917Z,98326.02
2018-08-06T11:12:24.069Z,98325.95
2018-08-06T11:17:17.222Z,98322.36
2018-08-06T11:22:10.637Z,98307.97
2018-08-06T11:27:03.797Z,98308.39
2018-08-06T11:31:56.839Z,98311.03
2018-08-06T11:36:49.900Z,98334.41
2018-08-06T11:41:43.795Z,98319.14
2018-08-06T11:46:36.942Z,98346.73
2018-08-06T11:51:29.986Z,98320.20
2018-08-06T11:56:23.103Z,98314.87
2018-08-06T12:01:15.995Z,98318.88
2018-08-06T12:06:09.084Z,98298.94
2018-08-06T12:11:02.027Z,98304.67
2018-08-06T12:15:55.102Z,98308.80
2018-08-06T12:20:48.521Z,98299.28
2018-08-06T12:25:41.696Z,98297.08
2018-08-06T12:30:34.736Z,98295.61
2018-08-06T12:35:27.838Z,98290.38
2018-08-06T12:40:22.115Z,98295.16
2018-08-06T12:45:15.817Z,98288.74
2018-08-06T12:50:09.991Z,98290.75
2018-08-06T12:55:03.426Z,98271.75
2018-08-06T12:59:56.429Z,98278.63
2018-08-06T13:04:49.466Z,98266.45
2018-08-06T13:09:42.451Z,98268.25
2018-08-06T13:14:36.044Z,98277.55
2018-08-06T13:19:29.041Z,98271.69
2018-08-06T13:24:22.022Z,98265.69
2018-08-06T13:29:15.957Z,98251.95
2018-08-06T13:34:08.906Z,98249.05
2018-08-06T13:39:01.983Z,98236.35
2018-08-06T13:43:55.035Z,98247.73
2018-08-06T13:48:48.779Z,98251.72
2018-08-06T13:53:42.099Z,98243.22
2018-08-06T13:58:35.045Z,98233.64
2018-08-06T14:03:28.188Z,98243.64
2018-08-06T14:08:21.856Z,98242.62
2018-08-06T14:13:14.916Z,98244.09
2018-08-06T14:18:08.092Z,98251.55
2018-08-06T14:23:01.256Z,98240.58
2018-08-06T14:27:54.307Z,98238.53
2018-08-06T14:32:47.866Z,98237.25
2018-08-06T14:37:40.941Z,98235.42
2018-08-06T14:42:34.107Z,98237.47
2018-08-06T14:47:27.104Z,98232.78
2018-08-06T14:52:20.108Z,98234.63
2018-08-06T14:57:13.606Z,98238.69
2018-08-06T15:02:06.608Z,98235.94
2018-08-06T15:06:59.728Z,98246.34
2018-08-06T15:11:52.915Z,98235.36
2018-08-06T15:16:45.963Z,98241.55
2018-08-06T15:21:39.152Z,98240.84
2018-08-06T15:26:32.278Z,98246.41
2018-08-06T15:31:25.721Z,98250.59
2018-08-06T15:36:19.721Z,98251.21
2018-08-06T15:41:12.831Z,98230.16
2018-08-06T15:46:05.789Z,98238.55
2018-08-06T15:50:58.735Z,98236.41
2018-08-06T15:55:52.032Z,98238.61
2018-08-06T16:00:45.250Z,98234.75
2018-08-06T16:05:38.595Z,98233.01
2018-08-06T16:10:31.995Z,98236.42
2018-08-06T16:15:25.127Z,98235.13
2018-08-06T16:20:18.682Z,98237.25
2018-08-06T16:25:13.461Z,98236.04
2018-08-06T16:30:11.995Z,98246.31
2018-08-06T16:35:05.776Z,98250.39
2018-08-06T16:39:58.860Z,98234.79
2018-08-06T16:44:53.430Z,98252.27
2018-08-06T16:49:46.686Z,98254.08
2018-08-06T16:54:40.105Z,98243.31
2018-08-06T16:59:33.788Z,98244.00
2018-08-06T17:04:27.347Z,98262.38
2018-08-06T17:09:20.467Z,98258.95
2018-08-06T17:14:13.794Z,98271.00
2018-08-06T17:19:06.811Z,98256.88
2018-08-06T17:24:00.200Z,98263.29
2018-08-06T17:28:53.184Z,98259.59
2018-08-06T17:33:46.367Z,98264.00
2018-08-06T17:38:39.813Z,98270.13
2018-08-06T17:43:34.000Z,98268.04
2018-08-06T17:48:27.218Z,98273.48
2018-08-06T17:53:20.658Z,98269.34
2018-08-06T17:58:13.714Z,98275.34
2018-08-06T18:03:06.968Z,98284.95
2018-08-06T18:08:00.206Z,98290.10
2018-08-06T18:12:53.104Z,98297.41
2018-08-06T18:17:46.100Z,98297.55
2018-08-06T18:22:39.056Z,98314.34
2018-08-06T18:27:32.316Z,98318.34
2018-08-06T18:32:26.070Z,98333.64
2018-08-06T18:37:19.196Z,98335.89
2018-08-06T18:42:12.751Z,98343.72
2018-08-06T18:47:06.392Z,98346.00
2018-08-06T18:51:59.609Z,98363.92
2018-08-06T18:56:52.714Z,98356.16
2018-08-06T19:01:45.887Z,98365.21
2018-08-06T19:06:39.538Z,98363.56
2018-08-06T19:11:32.767Z,98367.72
2018-08-06T19:16:26.734Z,98377.94
2018-08-06T19:21:19.755Z,98373.70
2018-08-06T19:26:12.807Z,98376.55
2018-08-06T19:31:11.177Z,98379.88
2018-08-06T19:36:04.419Z,98373.39
2018-08-06T19:40:57.420Z,98378.08
2018-08-06T19:45:50.523Z,98375.73
2018-08-06T19:50:44.446Z,98376.05
2018-08-06T19:55:43.023Z,98379.03
2018-08-06T20:00:38.497Z,98373.98
2018-08-06T20:05:31.588Z,98375.09
2018-08-06T20:10:24.684Z,98384.04
2018-08-06T20:15:19.681Z,98390.58
2018-08-06T20:20:13.272Z,98388.17
2018-08-06T20:25:08.899Z,98392.34
2018-08-06T20:30:01.967Z,98394.27
2018-08-06T20:34:55.925Z,98390.09
2018-08-06T20:39:49.461Z,98391.63
2018-08-06T20:44:42.579Z,98392.67
2018-08-06T20:49:35.637Z,98391.61
2018-08-06T20:54:28.605Z,98396.94
2018-08-06T20:59:21.536Z,98403.03
2018-08-06T21:04:14.739Z,98396.66
2018-08-06T21:09:09.242Z,98393.52
2018-08-06T21:14:02.326Z,98401.59
2018-08-06T21:18:55.361Z,98396.91
2018-08-06T21:23:48.383Z,98394.25
2018-08-06T21:28:41.495Z,98393.55
2018-08-06T21:33:34.616Z,98392.89
2018-08-06T21:38:27.630Z,98390.20
2018-08-06T21:43:20.749Z,98389.23
2018-08-06T21:48:13.818Z,98388.54
2018-08-06T21:53:07.033Z,98381.83
2018-08-06T21:58:06.918Z,98379.13
2018-08-06T22:03:00.087Z,98372.53
2018-08-06T22:07:53.019Z,98371.94
2018-08-06T22:12:45.998Z,98373.23
2018-08-06T22:17:38.967Z,98373.30
2018-08-06T22:22:32.144Z,98364.90
2018-08-06T22:27:25.263Z,98364.53
2018-08-06T22:32:18.360Z,98360.77
2018-08-06T22:37:11.354Z,98357.20
2018-08-06T22:42:04.301Z,98355.66
2018-08-06T22:46:57.371Z,98352.92
2018-08-06T22:51:50.459Z,98353.69
2018-08-06T22:56:43.555Z,98353.05
2018-08-06T23:01:36.524Z,98346.13
2018-08-06T23:06:30.558Z,98346.34
2018-08-06T23:11:23.574Z,98344.06
2018-08-06T23:16:16.682Z,98340.55
2018-08-06T23:21:10.666Z,98341.48
2018-08-06T23:26:07.619Z,98328.47
2018-08-06T23:31:00.730Z,98332.22
2018-08-06T23:35:53.864Z,98323.36
2018-08-06T23:40:47.484Z,98325.28
2018-08-06T23:45:40.490Z,98316.89
2018-08-06T23:50:34.305Z,98324.27
2018-08-06T23:55:27.471Z,98318.44
